Manheim, West Virginia
Current Conditions -  °F | °C
As of 1:06 AM on Monday 26 Jan 2015 (Local Time) from KEKN Reporting Station
Light Rain Light Rain  
Wind Chill: 34°   Ceiling: 3900
Heat Index: 34°   Visibility: 1.2mi
Dew Point: 34°   Wind: 0mph
Humidity: 100%   Direction: NA
Pressure: 29.69"   Gusts: NA
Location:  39.2234°N, 79.6204°W
Report Text: KEKN 260606Z AUTO 00000KT 1 1/4SM -RA BR OVC039 01/01 A2969 RMK AO2 P0001 T00110011 TSNO
Loading
Personal Weather Stations






























Interactive Weather Map New forecast layout! Learn more

10-Day Weather Forecast

Advertisements
Track Severe Weather on mobile